createdAt,value
2023-07-25T00:00:44.814Z,2.45
2023-07-25T00:06:05.993Z,5.28
2023-07-25T00:11:16.558Z,4.80
2023-07-25T00:16:24.596Z,4.65
2023-07-25T00:21:30.412Z,6.40
2023-07-25T00:26:35.990Z,5.43
2023-07-25T00:31:44.094Z,5.17
2023-07-25T00:36:49.650Z,3.53
2023-07-25T00:41:55.068Z,5.55
2023-07-25T00:47:03.165Z,2.23
2023-07-25T00:52:09.337Z,4.72
2023-07-25T00:57:14.790Z,5.45
2023-07-25T01:02:23.080Z,4.37
2023-07-25T01:07:29.006Z,3.40
2023-07-25T01:12:34.425Z,6.93
2023-07-25T01:17:42.958Z,2.37
2023-07-25T01:22:49.442Z,3.07
2023-07-25T01:27:57.388Z,2.72
2023-07-25T01:33:03.186Z,4.82
2023-07-25T01:38:08.866Z,4.80
2023-07-25T01:43:16.957Z,6.63
2023-07-25T01:48:22.345Z,6.82
2023-07-25T01:53:27.801Z,4.37
2023-07-25T01:58:35.789Z,2.90
2023-07-25T02:03:41.181Z,6.85
2023-07-25T02:08:46.908Z,5.40
2023-07-25T02:13:54.406Z,4.47
2023-07-25T02:19:00.312Z,3.88
2023-07-25T02:24:07.122Z,6.13
2023-07-25T02:29:15.111Z,5.13
2023-07-25T02:34:23.281Z,4.30
2023-07-25T02:39:29.049Z,4.05
2023-07-25T02:44:37.390Z,3.47
2023-07-25T02:49:42.806Z,3.40
2023-07-25T02:54:48.412Z,3.45
2023-07-25T02:59:56.571Z,4.97
2023-07-25T03:05:02.596Z,5.40
2023-07-25T03:10:09.533Z,2.58
2023-07-25T03:15:17.468Z,2.80
2023-07-25T03:20:22.802Z,5.10
2023-07-25T03:25:28.210Z,7.20
2023-07-25T03:30:36.205Z,5.25
2023-07-25T03:35:42.775Z,6.00
2023-07-25T03:40:48.507Z,4.20
2023-07-25T03:45:56.559Z,6.10
2023-07-25T03:51:02.044Z,4.10
2023-07-25T03:56:08.694Z,4.73
2023-07-25T04:01:16.406Z,5.20
2023-07-25T04:06:22.350Z,5.90
2023-07-25T04:11:28.003Z,6.33
2023-07-25T04:16:36.259Z,4.90
2023-07-25T04:21:41.778Z,6.85
2023-07-25T04:26:47.181Z,6.40
2023-07-25T04:31:56.400Z,3.80
2023-07-25T04:37:01.956Z,5.00
2023-07-25T04:42:08.190Z,7.97
2023-07-25T04:47:16.270Z,9.30
2023-07-25T04:52:21.693Z,6.43
2023-07-25T04:57:27.264Z,6.55
2023-07-25T05:02:35.571Z,3.97
2023-07-25T05:07:41.101Z,7.05
2023-07-25T05:12:46.546Z,4.93
2023-07-25T05:17:54.666Z,5.47
2023-07-25T05:23:00.379Z,4.40
2023-07-25T05:28:05.839Z,6.35
2023-07-25T05:33:14.092Z,7.03
2023-07-25T05:38:19.756Z,5.77
2023-07-25T05:43:25.206Z,6.30
2023-07-25T05:48:33.200Z,6.03
2023-07-25T05:53:38.813Z,10.57
2023-07-25T05:58:44.987Z,6.25
2023-07-25T06:03:53.038Z,6.25
2023-07-25T06:08:58.901Z,6.30
2023-07-25T06:14:06.501Z,6.97
2023-07-25T06:19:17.167Z,9.05
2023-07-25T06:24:23.599Z,5.87
2023-07-25T06:29:29.107Z,5.00
2023-07-25T06:34:37.123Z,7.32
2023-07-25T06:39:42.610Z,6.25
2023-07-25T06:44:48.113Z,15.23
2023-07-25T06:49:56.324Z,9.48
2023-07-25T06:55:02.021Z,8.52
2023-07-25T07:00:09.552Z,3.87
2023-07-25T07:05:29.548Z,4.55
2023-07-25T07:10:36.672Z,7.05
2023-07-25T07:15:42.086Z,4.03
2023-07-25T07:20:53.565Z,6.27
2023-07-25T07:25:59.339Z,7.05
2023-07-25T07:31:06.478Z,9.48
2023-07-25T07:36:14.615Z,10.90
2023-07-25T07:41:20.093Z,9.52
2023-07-25T07:46:25.507Z,9.13
2023-07-25T07:51:34.112Z,5.47
2023-07-25T07:56:40.006Z,4.70
2023-07-25T08:01:45.408Z,4.78
2023-07-25T08:06:53.711Z,5.80
2023-07-25T08:11:59.950Z,7.50
2023-07-25T08:17:06.144Z,6.10
2023-07-25T08:22:14.281Z,3.60
2023-07-25T08:27:19.990Z,6.50
2023-07-25T08:32:27.046Z,3.42
2023-07-25T08:37:35.274Z,2.65
2023-07-25T08:42:45.102Z,8.70
2023-07-25T08:47:53.877Z,5.35
2023-07-25T08:53:04.887Z,5.85
2023-07-25T08:58:10.680Z,4.43
2023-07-25T09:03:16.442Z,5.47
2023-07-25T09:08:24.549Z,5.35
2023-07-25T09:13:30.093Z,6.30
2023-07-25T09:18:35.468Z,3.77
2023-07-25T09:23:43.528Z,7.30
2023-07-25T09:28:52.614Z,5.68
2023-07-25T09:33:59.331Z,8.17
2023-07-25T09:39:07.891Z,5.28
2023-07-25T09:44:13.544Z,4.80
2023-07-25T09:49:26.598Z,7.27
2023-07-25T09:54:34.800Z,6.33
2023-07-25T09:59:41.005Z,6.80
2023-07-25T10:04:47.098Z,7.32
2023-07-25T10:09:56.212Z,4.40
2023-07-25T10:15:01.925Z,4.65
2023-07-25T10:20:12.356Z,4.25
2023-07-25T10:25:25.205Z,3.33
2023-07-25T10:30:32.800Z,3.95
2023-07-25T10:35:54.271Z,4.05
2023-07-25T10:41:03.926Z,4.27
2023-07-25T10:46:10.284Z,5.57
2023-07-25T10:51:16.935Z,8.85
2023-07-25T10:56:24.448Z,4.43
2023-07-25T11:01:48.209Z,5.80
2023-07-25T11:06:54.765Z,5.57
2023-07-25T11:12:02.869Z,8.23
2023-07-25T11:17:08.786Z,8.30
2023-07-25T11:22:15.649Z,6.32
2023-07-25T11:27:23.672Z,6.55
2023-07-25T11:32:31.999Z,5.43
2023-07-25T11:37:37.512Z,5.47
2023-07-25T11:42:47.240Z,6.03
2023-07-25T11:47:54.785Z,4.82
2023-07-25T11:53:00.593Z,4.97
2023-07-25T11:58:09.490Z,4.93
2023-07-25T12:03:21.889Z,3.35
2023-07-25T12:08:34.974Z,4.67
2023-07-25T12:13:50.728Z,5.45
2023-07-25T12:18:57.814Z,5.47
2023-07-25T12:24:05.336Z,9.30
2023-07-25T12:29:16.832Z,5.50
2023-07-25T12:34:22.902Z,9.30
2023-07-25T12:39:28.456Z,3.10
2023-07-25T12:44:36.468Z,5.17
2023-07-25T12:49:41.963Z,4.80
2023-07-25T12:54:47.473Z,7.72
2023-07-25T12:59:56.454Z,2.70
2023-07-25T13:05:02.044Z,3.28
2023-07-25T13:10:08.674Z,8.27
2023-07-25T13:15:17.433Z,7.30
2023-07-25T13:20:23.776Z,6.43
2023-07-25T13:25:29.203Z,3.97
2023-07-25T13:30:37.200Z,6.63
2023-07-25T13:35:42.664Z,4.00
2023-07-25T13:40:48.613Z,2.22
2023-07-25T13:45:56.840Z,3.88
2023-07-25T13:51:02.362Z,6.27
2023-07-25T13:56:08.070Z,4.45
2023-07-25T14:01:16.835Z,2.95
2023-07-25T14:06:22.271Z,3.30
2023-07-25T14:11:30.029Z,3.50
2023-07-25T14:16:38.184Z,4.55
2023-07-25T14:21:43.662Z,3.80
2023-07-25T14:26:49.095Z,3.47
2023-07-25T14:31:59.545Z,5.13
2023-07-25T14:37:05.026Z,4.38
2023-07-25T14:42:10.542Z,3.63
2023-07-25T14:47:18.989Z,5.00
2023-07-25T14:52:24.524Z,3.60
2023-07-25T14:57:31.778Z,3.23
2023-07-25T15:02:40.601Z,3.70
2023-07-25T15:07:46.294Z,3.92
2023-07-25T15:12:51.766Z,4.25
2023-07-25T15:18:00.446Z,3.17
2023-07-25T15:23:06.001Z,6.75
2023-07-25T15:28:11.619Z,6.60
2023-07-25T15:33:19.665Z,7.17
2023-07-25T15:38:25.096Z,3.15
2023-07-25T15:43:30.468Z,4.95
2023-07-25T15:48:38.593Z,4.03
2023-07-25T15:53:44.045Z,3.30
2023-07-25T15:58:50.400Z,5.70
2023-07-25T16:09:05.890Z,3.40
2023-07-25T16:14:11.334Z,3.80
2023-07-25T16:19:19.348Z,4.38
2023-07-25T16:24:24.870Z,1.37
2023-07-25T16:29:30.364Z,1.63
2023-07-25T16:34:39.290Z,1.63
2023-07-25T16:39:45.052Z,3.60
2023-07-25T16:44:50.526Z,5.53
2023-07-25T16:49:58.580Z,2.70
2023-07-25T16:55:04.823Z,1.05
2023-07-25T17:00:11.606Z,2.73
2023-07-25T17:05:19.757Z,2.75
2023-07-25T17:10:25.317Z,2.85
2023-07-25T17:15:30.734Z,1.73
2023-07-25T17:20:39.008Z,1.30
2023-07-25T17:25:45.957Z,0.70
2023-07-25T17:30:51.449Z,1.37
2023-07-25T17:35:58.920Z,1.70
2023-07-25T17:41:05.074Z,1.60
2023-07-25T17:46:10.631Z,1.45
2023-07-25T17:51:18.806Z,1.17
2023-07-25T17:56:24.214Z,1.15
2023-07-25T18:01:29.645Z,3.20
2023-07-25T18:06:37.753Z,2.57
2023-07-25T18:11:43.380Z,3.00
2023-07-25T18:16:48.858Z,3.85
2023-07-25T18:21:56.863Z,3.20
2023-07-25T18:27:02.382Z,1.57
2023-07-25T18:32:08.479Z,1.23
2023-07-25T18:37:16.587Z,2.08
2023-07-25T18:42:22.304Z,0.97
2023-07-25T18:47:34.661Z,2.47
2023-07-25T18:52:43.796Z,1.55
2023-07-25T18:57:49.447Z,0.80
2023-07-25T19:02:54.922Z,1.67
2023-07-25T19:08:03.037Z,2.08
2023-07-25T19:13:08.389Z,1.17
2023-07-25T19:18:14.120Z,1.30
2023-07-25T19:23:26.787Z,1.48
2023-07-25T19:28:33.069Z,1.40
2023-07-25T19:33:38.695Z,1.23
2023-07-25T19:38:47.919Z,1.70
2023-07-25T19:43:54.137Z,0.93
2023-07-25T19:48:59.533Z,2.43
2023-07-25T19:54:07.956Z,1.20
2023-07-25T19:59:13.409Z,1.73
2023-07-25T20:04:18.849Z,2.17
2023-07-25T20:09:27.341Z,1.27
2023-07-25T20:14:32.718Z,0.80
2023-07-25T20:19:38.256Z,1.25
2023-07-25T20:24:46.375Z,2.83
2023-07-25T20:29:54.745Z,1.83
2023-07-25T20:35:00.214Z,1.50
2023-07-25T20:40:10.214Z,2.30
2023-07-25T20:45:16.232Z,1.00
2023-07-25T20:50:21.628Z,2.65
2023-07-25T20:55:30.417Z,1.03
2023-07-25T21:00:35.869Z,2.63
2023-07-25T21:05:41.394Z,1.63
2023-07-25T21:10:50.302Z,1.63
2023-07-25T21:15:56.092Z,1.87
2023-07-25T21:21:02.726Z,3.88
2023-07-25T21:26:10.903Z,1.40
2023-07-25T21:31:16.304Z,1.83
2023-07-25T21:36:22.079Z,2.20
2023-07-25T21:41:30.057Z,5.95
2023-07-25T21:46:37.321Z,2.30
2023-07-25T21:51:44.438Z,3.00
2023-07-25T21:56:52.474Z,1.70
2023-07-25T22:01:58.020Z,2.83
2023-07-25T22:07:04.139Z,1.23
2023-07-25T22:12:13.250Z,3.15
2023-07-25T22:17:18.894Z,1.70
2023-07-25T22:22:24.610Z,4.47
2023-07-25T22:27:32.651Z,3.13
2023-07-25T22:32:38.339Z,2.28
2023-07-25T22:37:43.811Z,2.70
2023-07-25T22:42:52.071Z,1.43
2023-07-25T22:47:57.640Z,1.13
2023-07-25T22:53:03.103Z,2.35
2023-07-25T22:58:11.101Z,3.37
2023-07-25T23:03:16.713Z,3.10
2023-07-25T23:08:22.268Z,4.72
2023-07-25T23:13:30.676Z,4.40
2023-07-25T23:18:36.587Z,2.17
2023-07-25T23:23:41.995Z,1.95
2023-07-25T23:28:49.994Z,4.87
2023-07-25T23:33:55.454Z,4.27
2023-07-25T23:39:00.892Z,3.58
2023-07-25T23:44:10.413Z,3.28
2023-07-25T23:49:16.102Z,1.93
2023-07-25T23:54:21.808Z,1.40
2023-07-25T23:59:29.895Z,2.05
